Time;durP1;ratioP1;P1;durP2;ratioP2;P2;SDS_P1;SDS_P2;PMS_P1;PMS_P2;Temp;Humidity;BMP_temperature;BMP_pressure;BME280_temperature;BME280_humidity;BME280_pressure;Samples;Min_cycle;Max_cycle;Signal;HPM_P1;HPM_P2
2022/09/09 00:01:09;;;;;;;;;;;24.80;94.00;;;;;;5016625;28;19929;-54
2022/09/09 00:03:45;;;;;;;;;;;24.80;94.00;;;;;;5021550;28;20309;-51
2022/09/09 00:06:12;;;;;;;;;;;24.80;93.90;;;;;;5029350;28;19925;-54
2022/09/09 00:08:51;;;;;;;;;;;24.80;93.90;;;;;;5019815;28;19925;-51
2022/09/09 00:11:24;;;;;;;;;;;24.80;94.00;;;;;;5028405;28;19929;-49
2022/09/09 00:13:59;;;;;;;;;;;24.80;93.90;;;;;;5023695;28;19932;-54
2022/09/09 00:16:28;;;;;;;;;;;24.80;94.00;;;;;;5020733;28;19925;-53
2022/09/09 00:19:13;;;;;;;;;;;24.80;94.00;;;;;;5026263;28;19933;-52
2022/09/09 00:21:49;;;;;;;;;;;24.80;94.00;;;;;;5021322;28;19951;-53
2022/09/09 00:24:25;;;;;;;;;;;24.80;94.00;;;;;;5021636;28;20321;-49
2022/09/09 00:26:57;;;;;;;;;;;24.80;94.00;;;;;;5026600;28;19929;-50
2022/09/09 00:29:40;;;;;;;;;;;24.70;94.20;;;;;;5009761;28;20312;-55
2022/09/09 00:32:11;;;;;;;;;;;24.80;94.30;;;;;;5020873;28;20301;-50
2022/09/09 00:34:42;;;;;;;;;;;24.80;94.20;;;;;;5027326;28;19929;-55
2022/09/09 00:37:09;;;;;;;;;;;24.80;94.30;;;;;;5006833;28;20339;-51
2022/09/09 00:39:51;;;;;;;;;;;24.80;94.30;;;;;;5017758;28;19925;-55
2022/09/09 00:42:23;;;;;;;;;;;24.80;94.30;;;;;;5026371;28;19944;-54
2022/09/09 00:44:56;;;;;;;;;;;24.80;94.30;;;;;;5023064;28;19929;-50
2022/09/09 00:47:38;;;;;;;;;;;24.70;94.30;;;;;;5022954;28;19962;-54
2022/09/09 00:50:09;;;;;;;;;;;24.80;94.30;;;;;;5023928;28;19926;-52
2022/09/09 00:52:58;;;;;;;;;;;24.70;94.30;;;;;;5019942;28;19929;-51
2022/09/09 00:55:32;;;;;;;;;;;24.70;94.30;;;;;;5020773;28;19929;-52
2022/09/09 00:57:59;;;;;;;;;;;24.70;94.20;;;;;;5017757;28;19933;-54
2022/09/09 01:00:28;;;;;;;;;;;24.70;94.20;;;;;;5016241;28;19929;-55
2022/09/09 01:03:14;;;;;;;;;;;24.70;94.20;;;;;;5020735;28;19936;-52
2022/09/09 01:05:48;;;;;;;;;;;24.70;94.20;;;;;;5025713;28;19929;-53
2022/09/09 01:08:35;;;;;;;;;;;24.70;94.20;;;;;;4991064;28;20031;-57
2022/09/09 01:11:03;;;;;;;;;;;24.70;94.20;;;;;;5003282;28;19926;-57
2022/09/09 01:13:33;;;;;;;;;;;24.70;94.20;;;;;;5023518;28;19936;-55
2022/09/09 01:16:07;;;;;;;;;;;24.70;94.20;;;;;;5013027;28;20321;-54
2022/09/09 01:18:39;;;;;;;;;;;24.70;94.30;;;;;;5003720;28;20317;-56
2022/09/09 01:21:16;;;;;;;;;;;24.70;94.20;;;;;;5024259;28;19932;-51
2022/09/09 01:24:05;;;;;;;;;;;24.70;94.20;;;;;;5010127;28;19932;-54
2022/09/09 01:26:59;;;;;;;;;;;24.70;94.30;;;;;;5021874;28;19926;-53
2022/09/09 01:29:26;;;;;;;;;;;24.70;94.30;;;;;;5029338;28;20416;-52
2022/09/09 01:31:55;;;;;;;;;;;24.70;94.30;;;;;;5010105;28;19952;-53
2022/09/09 01:34:24;;;;;;;;;;;24.70;94.30;;;;;;5027990;28;20267;-54
2022/09/09 01:36:54;;;;;;;;;;;24.70;94.30;;;;;;5023112;28;19936;-58
2022/09/09 01:39:21;;;;;;;;;;;24.70;94.30;;;;;;5010238;28;20312;-55
2022/09/09 01:41:57;;;;;;;;;;;24.70;94.30;;;;;;5008202;28;19933;-56
2022/09/09 01:44:25;;;;;;;;;;;24.70;94.30;;;;;;5007144;28;19925;-56
2022/09/09 01:46:52;;;;;;;;;;;24.60;94.30;;;;;;5022999;28;19929;-54
2022/09/09 01:49:21;;;;;;;;;;;24.70;94.40;;;;;;5026003;28;20474;-53
2022/09/09 01:51:51;;;;;;;;;;;24.60;94.30;;;;;;5024582;28;20260;-53
2022/09/09 01:54:26;;;;;;;;;;;24.60;94.40;;;;;;5011996;28;19948;-54
2022/09/09 01:57:00;;;;;;;;;;;24.60;94.40;;;;;;5006524;28;19932;-52
2022/09/09 01:59:30;;;;;;;;;;;24.60;94.40;;;;;;5009274;28;19925;-56
2022/09/09 02:01:58;;;;;;;;;;;24.60;94.40;;;;;;5009924;28;19936;-55
2022/09/09 02:04:38;;;;;;;;;;;24.60;94.30;;;;;;5001761;28;19925;-55
2022/09/09 02:07:23;;;;;;;;;;;24.60;94.30;;;;;;5003216;28;19929;-55
2022/09/09 02:10:00;;;;;;;;;;;24.60;94.30;;;;;;5018731;28;20421;-56
2022/09/09 02:12:30;;;;;;;;;;;24.60;94.30;;;;;;5011184;28;20432;-56
2022/09/09 02:15:03;;;;;;;;;;;24.60;94.30;;;;;;5005668;28;20341;-52
2022/09/09 02:17:39;;;;;;;;;;;24.60;94.20;;;;;;5016281;28;19964;-56
2022/09/09 02:20:14;;;;;;;;;;;24.60;94.30;;;;;;5024691;28;19933;-55
2022/09/09 02:22:52;;;;;;;;;;;24.60;94.30;;;;;;5005760;28;19933;-57
2022/09/09 02:25:23;;;;;;;;;;;24.60;94.30;;;;;;5026446;28;20401;-56
2022/09/09 02:27:53;;;;;;;;;;;24.60;94.30;;;;;;5009069;28;19929;-57
2022/09/09 02:30:20;;;;;;;;;;;24.60;94.30;;;;;;5031055;28;19925;-55
2022/09/09 02:32:56;;;;;;;;;;;24.60;94.30;;;;;;5008518;28;19941;-52
2022/09/09 02:35:32;;;;;;;;;;;24.60;94.30;;;;;;5009409;28;19933;-51
2022/09/09 02:38:02;;;;;;;;;;;24.60;94.30;;;;;;5028743;28;19936;-59
2022/09/09 02:40:30;;;;;;;;;;;24.60;94.30;;;;;;5015421;28;20401;-58
2022/09/09 02:43:00;;;;;;;;;;;24.60;94.30;;;;;;5008593;28;19937;-52
2022/09/09 02:45:39;;;;;;;;;;;24.60;94.20;;;;;;5017431;28;20403;-57
2022/09/09 02:48:27;;;;;;;;;;;24.60;94.20;;;;;;5022368;28;20316;-57
2022/09/09 02:51:00;;;;;;;;;;;24.60;94.20;;;;;;5032754;28;19932;-54
2022/09/09 02:53:47;;;;;;;;;;;24.60;94.20;;;;;;5024521;28;19926;-55
2022/09/09 02:56:16;;;;;;;;;;;24.60;94.20;;;;;;5033579;28;19928;-54
2022/09/09 02:58:46;;;;;;;;;;;24.60;94.20;;;;;;5007617;28;19940;-55
2022/09/09 03:01:14;;;;;;;;;;;24.60;94.10;;;;;;5017186;28;19929;-57
2022/09/09 03:03:42;;;;;;;;;;;24.50;94.10;;;;;;5026611;28;19940;-57
2022/09/09 03:06:14;;;;;;;;;;;24.60;94.10;;;;;;5005546;28;19929;-55
2022/09/09 03:08:41;;;;;;;;;;;24.50;94.10;;;;;;5022850;28;19933;-55
2022/09/09 03:11:18;;;;;;;;;;;24.60;94.10;;;;;;5022590;28;19936;-54
2022/09/09 03:13:45;;;;;;;;;;;24.60;94.10;;;;;;5027165;28;19936;-50
2022/09/09 03:16:12;;;;;;;;;;;24.50;94.10;;;;;;5027778;28;19937;-55
2022/09/09 03:18:44;;;;;;;;;;;24.60;94.10;;;;;;5004191;28;19929;-53
2022/09/09 03:21:11;;;;;;;;;;;24.50;94.10;;;;;;5026669;28;20308;-54
2022/09/09 03:23:40;;;;;;;;;;;24.50;94.10;;;;;;5027033;28;19936;-53
2022/09/09 03:26:08;;;;;;;;;;;24.60;94.10;;;;;;5004939;28;19933;-57
2022/09/09 03:28:41;;;;;;;;;;;24.50;94.10;;;;;;5028334;28;19936;-56
2022/09/09 03:31:10;;;;;;;;;;;24.50;94.10;;;;;;5020759;28;19948;-56
2022/09/09 03:33:41;;;;;;;;;;;24.50;94.20;;;;;;5006574;28;19926;-54
2022/09/09 03:36:10;;;;;;;;;;;24.50;94.00;;;;;;5010093;28;20329;-55
2022/09/09 03:38:38;;;;;;;;;;;24.50;94.00;;;;;;5013095;28;20325;-54
2022/09/09 03:41:07;;;;;;;;;;;24.50;94.00;;;;;;5026689;28;19932;-54
2022/09/09 03:43:34;;;;;;;;;;;24.50;94.00;;;;;;5024827;28;20397;-55
2022/09/09 03:46:01;;;;;;;;;;;24.50;94.00;;;;;;5029184;28;19936;-55
2022/09/09 03:48:29;;;;;;;;;;;24.50;94.00;;;;;;4990633;28;19949;-54
2022/09/09 03:51:00;;;;;;;;;;;24.50;94.00;;;;;;5023445;28;20502;-55
2022/09/09 03:53:28;;;;;;;;;;;24.50;94.00;;;;;;5008408;28;19945;-54
2022/09/09 03:55:59;;;;;;;;;;;24.50;94.00;;;;;;5024641;28;19932;-54
2022/09/09 03:58:27;;;;;;;;;;;24.50;94.00;;;;;;5002187;28;19925;-54
2022/09/09 04:01:00;;;;;;;;;;;24.50;94.00;;;;;;5003544;28;19925;-55
2022/09/09 04:03:28;;;;;;;;;;;24.50;94.00;;;;;;5024788;28;19933;-56
2022/09/09 04:05:56;;;;;;;;;;;24.50;93.90;;;;;;5014015;28;19929;-53
2022/09/09 04:08:27;;;;;;;;;;;24.50;94.00;;;;;;5017461;28;19930;-54
2022/09/09 04:10:57;;;;;;;;;;;24.50;93.90;;;;;;5020191;28;19929;-51
2022/09/09 04:13:26;;;;;;;;;;;24.50;94.00;;;;;;5007521;28;19929;-55
2022/09/09 04:15:54;;;;;;;;;;;24.50;93.90;;;;;;5005681;28;19933;-55
2022/09/09 04:18:22;;;;;;;;;;;24.40;93.90;;;;;;5015389;28;19925;-50
2022/09/09 04:20:50;;;;;;;;;;;24.40;93.90;;;;;;5027834;28;20345;-55
2022/09/09 04:23:20;;;;;;;;;;;24.40;93.90;;;;;;5004543;28;19936;-51
2022/09/09 04:25:48;;;;;;;;;;;24.40;93.90;;;;;;5020706;28;20242;-53
2022/09/09 04:28:16;;;;;;;;;;;24.40;93.90;;;;;;5009127;28;19936;-57
2022/09/09 04:30:43;;;;;;;;;;;24.50;93.90;;;;;;5004072;28;19929;-56
2022/09/09 04:33:12;;;;;;;;;;;24.40;93.90;;;;;;5003498;28;19940;-55
2022/09/09 04:35:43;;;;;;;;;;;24.40;93.90;;;;;;5029350;28;19932;-51
2022/09/09 04:38:11;;;;;;;;;;;24.40;93.90;;;;;;5024147;28;20323;-56
2022/09/09 04:40:42;;;;;;;;;;;24.40;93.90;;;;;;5026582;28;19948;-54
2022/09/09 04:43:10;;;;;;;;;;;24.40;93.90;;;;;;5001082;28;19930;-53
2022/09/09 04:45:42;;;;;;;;;;;24.40;93.90;;;;;;5021050;28;19933;-56
2022/09/09 04:48:10;;;;;;;;;;;24.40;93.90;;;;;;5009560;28;19936;-57
2022/09/09 04:50:37;;;;;;;;;;;24.40;93.90;;;;;;5003433;28;20363;-53
2022/09/09 04:53:05;;;;;;;;;;;24.40;93.90;;;;;;5026211;28;19936;-49
2022/09/09 04:55:34;;;;;;;;;;;24.40;93.90;;;;;;5018978;28;20408;-56
2022/09/09 04:58:06;;;;;;;;;;;24.40;94.00;;;;;;5022999;28;20564;-54
2022/09/09 05:00:35;;;;;;;;;;;24.40;94.00;;;;;;5026432;28;19936;-55
2022/09/09 05:03:05;;;;;;;;;;;24.40;94.00;;;;;;5003700;28;19936;-50
2022/09/09 05:05:34;;;;;;;;;;;24.40;94.00;;;;;;5001206;28;19964;-52
2022/09/09 05:08:02;;;;;;;;;;;24.40;93.90;;;;;;5008348;28;19929;-54
2022/09/09 05:10:29;;;;;;;;;;;24.40;93.90;;;;;;5026262;28;20411;-52
2022/09/09 05:12:57;;;;;;;;;;;24.40;93.90;;;;;;5002628;28;19925;-54
2022/09/09 05:15:27;;;;;;;;;;;24.40;93.90;;;;;;5027276;28;19933;-53
2022/09/09 05:17:59;;;;;;;;;;;24.40;93.90;;;;;;4999003;28;19932;-52
2022/09/09 05:20:27;;;;;;;;;;;24.40;93.90;;;;;;5020647;28;21244;-54
2022/09/09 05:22:56;;;;;;;;;;;24.40;93.90;;;;;;5002671;28;19929;-58
2022/09/09 05:25:26;;;;;;;;;;;24.40;93.80;;;;;;5008523;28;19948;-57
2022/09/09 05:27:55;;;;;;;;;;;24.40;93.80;;;;;;5005746;28;19925;-53
2022/09/09 05:30:26;;;;;;;;;;;24.40;93.90;;;;;;5008152;28;21472;-51
2022/09/09 05:32:55;;;;;;;;;;;24.40;93.90;;;;;;4987201;28;19934;-53
2022/09/09 05:35:22;;;;;;;;;;;24.40;93.80;;;;;;5024055;28;19929;-56
2022/09/09 05:37:50;;;;;;;;;;;24.40;93.90;;;;;;5020990;28;19929;-56
2022/09/09 05:40:18;;;;;;;;;;;24.40;93.90;;;;;;5000113;28;19929;-54
2022/09/09 05:42:46;;;;;;;;;;;24.30;93.90;;;;;;5007634;28;19940;-55
2022/09/09 05:45:13;;;;;;;;;;;24.30;93.90;;;;;;5024826;28;19933;-57
2022/09/09 05:47:40;;;;;;;;;;;24.30;93.80;;;;;;5014265;28;20307;-50
2022/09/09 05:50:11;;;;;;;;;;;24.30;93.80;;;;;;5011215;28;19929;-56
2022/09/09 05:52:38;;;;;;;;;;;24.30;93.80;;;;;;5019725;28;19929;-54
2022/09/09 05:55:07;;;;;;;;;;;24.30;93.80;;;;;;5021007;28;19925;-55
2022/09/09 05:57:34;;;;;;;;;;;24.30;93.80;;;;;;5027335;28;20289;-54
2022/09/09 06:00:02;;;;;;;;;;;24.40;93.80;;;;;;5014743;28;19929;-55
2022/09/09 06:02:41;;;;;;;;;;;24.30;93.80;;;;;;5026318;28;19937;-53
2022/09/09 06:05:12;;;;;;;;;;;24.30;93.70;;;;;;5022253;28;20013;-55
2022/09/09 06:07:41;;;;;;;;;;;24.40;93.80;;;;;;5005780;28;19929;-57
2022/09/09 06:10:09;;;;;;;;;;;24.40;94.00;;;;;;5018662;28;19926;-57
2022/09/09 06:12:36;;;;;;;;;;;24.40;94.20;;;;;;4999803;28;19937;-58
2022/09/09 06:15:04;;;;;;;;;;;24.50;94.20;;;;;;5006951;28;19936;-52
2022/09/09 06:17:31;;;;;;;;;;;24.50;94.20;;;;;;5006141;28;19929;-53
2022/09/09 06:19:59;;;;;;;;;;;24.50;94.20;;;;;;5023840;28;19929;-56
2022/09/09 06:22:26;;;;;;;;;;;24.50;94.30;;;;;;5023884;28;19929;-53
2022/09/09 06:24:54;;;;;;;;;;;24.50;94.40;;;;;;5006287;28;19925;-54
2022/09/09 06:27:22;;;;;;;;;;;24.50;94.50;;;;;;5021969;28;19933;-63
2022/09/09 06:29:49;;;;;;;;;;;24.50;94.50;;;;;;5008270;28;19933;-59
2022/09/09 06:32:17;;;;;;;;;;;24.50;94.80;;;;;;5011565;28;19929;-55
2022/09/09 06:34:45;;;;;;;;;;;24.50;95.00;;;;;;4990529;28;20001;-54
2022/09/09 06:37:12;;;;;;;;;;;24.50;95.00;;;;;;4997158;28;19929;-56
2022/09/09 06:39:45;;;;;;;;;;;24.50;95.00;;;;;;5006307;28;19929;-60
2022/09/09 06:42:12;;;;;;;;;;;24.50;95.00;;;;;;4992638;28;19932;-57
2022/09/09 06:44:55;;;;;;;;;;;24.50;94.90;;;;;;5002500;28;20340;-56
2022/09/09 06:47:35;;;;;;;;;;;24.50;95.00;;;;;;5005027;28;19933;-55
2022/09/09 06:50:03;;;;;;;;;;;24.50;95.00;;;;;;5020707;28;19936;-53
2022/09/09 06:52:33;;;;;;;;;;;24.50;94.90;;;;;;5004796;28;19932;-48
2022/09/09 06:55:01;;;;;;;;;;;24.50;94.80;;;;;;5006829;28;20312;-55
2022/09/09 06:57:29;;;;;;;;;;;24.50;94.80;;;;;;5007399;28;19925;-56
2022/09/09 07:00:11;;;;;;;;;;;24.50;94.90;;;;;;5001989;28;19933;-54
2022/09/09 07:02:40;;;;;;;;;;;24.50;95.00;;;;;;5019632;28;19936;-52
2022/09/09 07:05:09;;;;;;;;;;;24.50;95.10;;;;;;5005973;28;19931;-54
2022/09/09 07:07:37;;;;;;;;;;;24.50;95.10;;;;;;5006061;28;19933;-52
2022/09/09 07:10:05;;;;;;;;;;;24.50;95.20;;;;;;5006850;28;19929;-55
2022/09/09 07:12:32;;;;;;;;;;;24.50;95.00;;;;;;5010890;28;19933;-52
2022/09/09 07:15:00;;;;;;;;;;;24.40;94.80;;;;;;5005127;28;19929;-49
2022/09/09 07:17:28;;;;;;;;;;;24.40;94.80;;;;;;5003831;28;20380;-56
2022/09/09 07:19:58;;;;;;;;;;;24.40;95.30;;;;;;5022824;28;19940;-58
2022/09/09 07:22:27;;;;;;;;;;;24.50;95.30;;;;;;5009153;28;19929;-58
2022/09/09 07:24:54;;;;;;;;;;;24.50;95.40;;;;;;5023088;28;19929;-53
2022/09/09 07:27:21;;;;;;;;;;;24.50;95.40;;;;;;5019165;28;19933;-54
2022/09/09 07:29:49;;;;;;;;;;;24.50;95.50;;;;;;5003956;28;19929;-57
2022/09/09 07:32:19;;;;;;;;;;;24.60;95.60;;;;;;5027587;28;20297;-57
2022/09/09 07:34:46;;;;;;;;;;;24.60;95.50;;;;;;5007718;28;19930;-53
2022/09/09 07:37:14;;;;;;;;;;;24.60;95.60;;;;;;5007094;28;19936;-52
2022/09/09 07:39:43;;;;;;;;;;;24.60;95.50;;;;;;5021751;28;19933;-51
2022/09/09 07:42:11;;;;;;;;;;;24.60;95.10;;;;;;4999974;28;19933;-54
2022/09/09 07:44:39;;;;;;;;;;;24.60;95.10;;;;;;5011806;28;20285;-56
2022/09/09 07:47:10;;;;;;;;;;;24.60;95.00;;;;;;5024660;28;20340;-55
2022/09/09 07:49:46;;;;;;;;;;;24.60;95.10;;;;;;5019568;28;19929;-58
2022/09/09 07:52:17;;;;;;;;;;;24.60;95.10;;;;;;5015291;28;20127;-54
2022/09/09 07:54:50;;;;;;;;;;;24.60;95.20;;;;;;5008206;28;19929;-57
2022/09/09 07:57:17;;;;;;;;;;;24.60;95.30;;;;;;5007001;28;20040;-58
2022/09/09 07:59:46;;;;;;;;;;;24.60;95.20;;;;;;5002374;28;20294;-51
2022/09/09 08:02:13;;;;;;;;;;;24.70;95.30;;;;;;5007144;28;19929;-58
2022/09/09 08:04:41;;;;;;;;;;;24.60;95.20;;;;;;5015073;28;20039;-48
2022/09/09 08:07:10;;;;;;;;;;;24.70;95.20;;;;;;5003314;28;19951;-50
2022/09/09 08:09:44;;;;;;;;;;;24.70;95.40;;;;;;4994688;28;19937;-57
2022/09/09 08:12:25;;;;;;;;;;;24.70;95.70;;;;;;5007647;28;19938;-54
2022/09/09 08:14:53;;;;;;;;;;;24.60;96.00;;;;;;5007634;28;20423;-56
2022/09/09 08:17:23;;;;;;;;;;;24.60;96.30;;;;;;4998934;28;19936;-58
2022/09/09 08:19:50;;;;;;;;;;;24.70;96.70;;;;;;5003832;28;19952;-50
2022/09/09 08:22:24;;;;;;;;;;;24.60;97.10;;;;;;4992973;28;20316;-50
2022/09/09 08:24:51;;;;;;;;;;;24.60;97.00;;;;;;5007466;28;19927;-51
2022/09/09 08:27:19;;;;;;;;;;;24.60;97.00;;;;;;5001944;28;19941;-48
2022/09/09 08:29:46;;;;;;;;;;;24.60;97.10;;;;;;5000005;28;20499;-50
2022/09/09 08:32:13;;;;;;;;;;;24.60;96.90;;;;;;5019261;28;19929;-53
2022/09/09 08:34:41;;;;;;;;;;;24.60;96.80;;;;;;5000393;28;19930;-55
2022/09/09 08:37:20;;;;;;;;;;;24.50;96.60;;;;;;4999639;28;19929;-54
2022/09/09 08:39:48;;;;;;;;;;;24.50;96.20;;;;;;5021067;28;19936;-48
2022/09/09 08:42:28;;;;;;;;;;;24.50;96.00;;;;;;5006331;28;19932;-53
2022/09/09 08:45:11;;;;;;;;;;;24.30;93.60;;;;;;5010571;28;19930;-49
2022/09/09 08:47:39;;;;;;;;;;;23.70;92.40;;;;;;5002493;28;19929;-54
2022/09/09 08:50:25;;;;;;;;;;;23.50;93.70;;;;;;4991534;28;19926;-49
2022/09/09 08:53:01;;;;;;;;;;;23.50;94.20;;;;;;4997561;28;19926;-53
2022/09/09 08:55:49;;;;;;;;;;;23.50;93.50;;;;;;4999980;28;19932;-55
2022/09/09 08:58:20;;;;;;;;;;;23.40;92.40;;;;;;5005667;28;20324;-51
2022/09/09 09:00:51;;;;;;;;;;;23.30;92.20;;;;;;5001739;28;20378;-50
2022/09/09 09:03:24;;;;;;;;;;;23.10;91.90;;;;;;4988811;28;20041;-53
2022/09/09 09:06:01;;;;;;;;;;;23.10;91.60;;;;;;4995045;28;19929;-48
2022/09/09 09:08:37;;;;;;;;;;;23.10;91.40;;;;;;5001866;28;20370;-56
2022/09/09 09:11:05;;;;;;;;;;;23.20;91.20;;;;;;5007564;28;19934;-53
2022/09/09 09:13:36;;;;;;;;;;;23.30;90.90;;;;;;5001376;28;20382;-49
2022/09/09 09:16:15;;;;;;;;;;;23.30;90.70;;;;;;4999364;28;21016;-47
2022/09/09 09:18:42;;;;;;;;;;;23.30;91.20;;;;;;4995798;28;19926;-52
2022/09/09 09:21:20;;;;;;;;;;;23.50;90.90;;;;;;5005605;28;19925;-49
2022/09/09 09:23:58;;;;;;;;;;;23.50;90.80;;;;;;5000598;28;19929;-51
2022/09/09 09:26:30;;;;;;;;;;;23.50;90.60;;;;;;5001467;28;21746;-51
2022/09/09 09:28:59;;;;;;;;;;;23.40;90.30;;;;;;4997748;28;19956;-53
2022/09/09 09:31:26;;;;;;;;;;;23.40;90.00;;;;;;5003580;28;19929;-53
2022/09/09 09:33:54;;;;;;;;;;;23.20;89.00;;;;;;5003997;28;19936;-51
2022/09/09 09:36:41;;;;;;;;;;;23.10;89.30;;;;;;5007169;28;19926;-56
2022/09/09 09:39:10;;;;;;;;;;;23.10;89.10;;;;;;4994941;28;19925;-54
2022/09/09 09:42:10;;;;;;;;;;;22.90;89.30;;;;;;4994547;28;20309;-50
2022/09/09 09:44:37;;;;;;;;;;;23.00;89.10;;;;;;5009719;28;19937;-53
2022/09/09 09:47:13;;;;;;;;;;;23.00;89.60;;;;;;4996963;28;19946;-53
2022/09/09 09:49:58;;;;;;;;;;;23.10;89.20;;;;;;5016215;28;19929;-51
2022/09/09 09:52:28;;;;;;;;;;;23.10;89.00;;;;;;4999681;28;19975;-49
2022/09/09 09:54:59;;;;;;;;;;;23.10;88.70;;;;;;5002416;28;20432;-47
2022/09/09 09:57:33;;;;;;;;;;;23.00;88.20;;;;;;4996740;28;19925;-53
2022/09/09 10:00:17;;;;;;;;;;;23.10;88.40;;;;;;5006806;28;19944;-49
2022/09/09 10:02:52;;;;;;;;;;;23.20;88.30;;;;;;4993821;28;19937;-50
2022/09/09 10:05:28;;;;;;;;;;;23.10;87.40;;;;;;4996488;28;19930;-50
2022/09/09 10:08:11;;;;;;;;;;;23.20;87.70;;;;;;5003221;28;19956;-52
2022/09/09 10:10:41;;;;;;;;;;;23.10;87.00;;;;;;4996028;28;19930;-51
2022/09/09 10:13:23;;;;;;;;;;;23.20;87.50;;;;;;5004776;28;19936;-51
2022/09/09 10:16:02;;;;;;;;;;;23.30;87.00;;;;;;5009219;28;19936;-52
2022/09/09 10:18:50;;;;;;;;;;;23.40;87.40;;;;;;4999281;28;19930;-51
2022/09/09 10:21:36;;;;;;;;;;;23.40;87.10;;;;;;5001198;28;20305;-54
2022/09/09 10:24:12;;;;;;;;;;;23.40;87.30;;;;;;4990224;28;19926;-52
2022/09/09 10:26:58;;;;;;;;;;;23.50;87.60;;;;;;5008656;28;19929;-51
2022/09/09 10:29:34;;;;;;;;;;;23.50;86.80;;;;;;5001902;28;19929;-49
2022/09/09 10:32:25;;;;;;;;;;;23.30;85.00;;;;;;5000336;28;19926;-49
2022/09/09 10:35:11;;;;;;;;;;;23.20;85.30;;;;;;4997865;28;20305;-52
2022/09/09 10:37:45;;;;;;;;;;;23.30;85.20;;;;;;5017094;28;19929;-53
2022/09/09 10:40:26;;;;;;;;;;;23.20;84.90;;;;;;5026764;28;19932;-55
2022/09/09 10:42:58;;;;;;;;;;;23.20;84.90;;;;;;5021702;28;19936;-51
2022/09/09 10:45:35;;;;;;;;;;;23.20;83.80;;;;;;5025931;28;19929;-52
2022/09/09 10:48:08;;;;;;;;;;;23.20;83.80;;;;;;5018535;28;19925;-49
2022/09/09 10:50:38;;;;;;;;;;;23.10;84.00;;;;;;5018082;28;19944;-50
2022/09/09 10:53:31;;;;;;;;;;;23.10;83.70;;;;;;5018481;28;19936;-53
2022/09/09 10:56:04;;;;;;;;;;;23.00;83.60;;;;;;5027584;28;19929;-55
2022/09/09 10:58:50;;;;;;;;;;;23.00;83.60;;;;;;5022510;28;20226;-48
2022/09/09 11:01:22;;;;;;;;;;;23.10;83.80;;;;;;5021313;28;19932;-54
2022/09/09 11:03:55;;;;;;;;;;;23.10;83.60;;;;;;5024140;28;19929;-50
2022/09/09 11:06:25;;;;;;;;;;;23.20;83.30;;;;;;5021081;28;19925;-48
2022/09/09 11:08:52;;;;;;;;;;;23.20;82.40;;;;;;5023869;28;19928;-53
2022/09/09 11:11:29;;;;;;;;;;;23.20;82.70;;;;;;5026503;28;19929;-51
2022/09/09 11:14:09;;;;;;;;;;;23.10;82.40;;;;;;5011594;28;20428;-53
2022/09/09 11:16:36;;;;;;;;;;;23.10;82.70;;;;;;5022466;28;19925;-53
2022/09/09 11:19:09;;;;;;;;;;;23.10;82.50;;;;;;5019271;28;19930;-53
2022/09/09 11:21:40;;;;;;;;;;;23.20;83.10;;;;;;5019213;28;19929;-54
2022/09/09 11:24:12;;;;;;;;;;;23.30;82.30;;;;;;5022666;28;19933;-54
2022/09/09 11:26:49;;;;;;;;;;;23.30;82.40;;;;;;5024569;28;19925;-51
2022/09/09 11:29:19;;;;;;;;;;;23.20;82.20;;;;;;5027149;28;19932;-52
2022/09/09 11:32:06;;;;;;;;;;;23.20;82.10;;;;;;5026662;28;19933;-54
2022/09/09 11:34:52;;;;;;;;;;;23.30;82.60;;;;;;5008126;28;19929;-49
2022/09/09 11:37:22;;;;;;;;;;;23.40;82.60;;;;;;5028807;28;19933;-49
2022/09/09 11:39:50;;;;;;;;;;;23.40;83.00;;;;;;5023834;28;20749;-47
2022/09/09 11:42:19;;;;;;;;;;;23.40;83.10;;;;;;5026400;28;19933;-50
2022/09/09 11:44:46;;;;;;;;;;;23.40;83.20;;;;;;5018409;28;19933;-50
2022/09/09 11:47:26;;;;;;;;;;;23.30;82.80;;;;;;5019247;28;20432;-52
2022/09/09 11:49:53;;;;;;;;;;;23.20;83.00;;;;;;5024177;28;19936;-53
2022/09/09 11:52:47;;;;;;;;;;;23.20;83.20;;;;;;5016427;28;19929;-48
2022/09/09 11:55:20;;;;;;;;;;;23.20;83.30;;;;;;5008109;28;19926;-50
2022/09/09 11:57:48;;;;;;;;;;;23.20;83.50;;;;;;5024484;28;20310;-51
2022/09/09 12:00:48;;;;;;;;;;;23.20;82.90;;;;;;5019785;28;19929;-49
2022/09/09 12:03:31;;;;;;;;;;;23.20;83.50;;;;;;4997254;28;20405;-51
2022/09/09 12:05:58;;;;;;;;;;;23.20;83.30;;;;;;5030219;28;20513;-51
2022/09/09 12:08:27;;;;;;;;;;;23.30;83.90;;;;;;5022593;28;19936;-53
2022/09/09 12:10:59;;;;;;;;;;;23.20;83.30;;;;;;5026531;28;19925;-51
2022/09/09 12:13:27;;;;;;;;;;;23.10;83.40;;;;;;5026727;28;20047;-50
2022/09/09 12:15:57;;;;;;;;;;;23.00;86.20;;;;;;5028313;28;19936;-51
2022/09/09 12:18:39;;;;;;;;;;;23.00;86.00;;;;;;5001555;28;19925;-54
2022/09/09 12:21:14;;;;;;;;;;;23.00;87.10;;;;;;5028744;28;20313;-51
2022/09/09 12:23:50;;;;;;;;;;;23.00;87.90;;;;;;5027665;28;19929;-49
2022/09/09 12:26:26;;;;;;;;;;;23.00;87.90;;;;;;5008620;28;20324;-50
2022/09/09 12:29:09;;;;;;;;;;;23.10;88.50;;;;;;5022035;28;19936;-50
2022/09/09 12:31:48;;;;;;;;;;;23.20;88.40;;;;;;5016547;28;19925;-49
2022/09/09 12:34:35;;;;;;;;;;;23.20;88.80;;;;;;5022302;28;19925;-50
2022/09/09 12:37:14;;;;;;;;;;;23.10;89.00;;;;;;5026771;28;19925;-52
2022/09/09 12:39:45;;;;;;;;;;;23.00;89.30;;;;;;5027084;28;20377;-51
2022/09/09 12:42:16;;;;;;;;;;;23.00;89.90;;;;;;5020917;28;20317;-53
2022/09/09 12:44:53;;;;;;;;;;;22.80;90.30;;;;;;5023261;28;19936;-55
2022/09/09 12:47:23;;;;;;;;;;;22.60;90.80;;;;;;5016292;28;19929;-58
2022/09/09 12:49:56;;;;;;;;;;;22.70;91.20;;;;;;5028170;28;20423;-55
2022/09/09 12:52:35;;;;;;;;;;;22.90;91.30;;;;;;5003724;28;20415;-55
2022/09/09 12:55:04;;;;;;;;;;;23.00;91.20;;;;;;5016876;28;19925;-55
2022/09/09 12:57:36;;;;;;;;;;;22.90;90.70;;;;;;5025707;28;19943;-55
2022/09/09 13:00:05;;;;;;;;;;;22.80;90.10;;;;;;5023665;28;19956;-51
2022/09/09 13:02:32;;;;;;;;;;;22.80;90.30;;;;;;5006676;28;19932;-50
2022/09/09 13:05:13;;;;;;;;;;;22.70;89.00;;;;;;5023806;28;19933;-51
2022/09/09 13:07:40;;;;;;;;;;;22.70;88.90;;;;;;5022755;28;19929;-51
2022/09/09 13:10:10;;;;;;;;;;;22.90;89.60;;;;;;5028717;28;20400;-50
2022/09/09 13:12:44;;;;;;;;;;;23.20;90.30;;;;;;5026097;28;19936;-48
2022/09/09 13:15:16;;;;;;;;;;;23.50;90.40;;;;;;5029064;28;19929;-54
2022/09/09 13:17:49;;;;;;;;;;;23.60;90.90;;;;;;5020084;28;19929;-50
2022/09/09 13:20:17;;;;;;;;;;;23.80;90.80;;;;;;5028870;28;19940;-52
2022/09/09 13:22:44;;;;;;;;;;;23.90;90.60;;;;;;5026471;28;19929;-55
2022/09/09 13:25:11;;;;;;;;;;;24.00;90.70;;;;;;5029963;28;19939;-54
2022/09/09 13:27:40;;;;;;;;;;;24.10;91.20;;;;;;5032302;28;19929;-53
2022/09/09 13:30:40;;;;;;;;;;;24.10;91.20;;;;;;5006894;28;19925;-51
2022/09/09 13:33:10;;;;;;;;;;;24.20;91.40;;;;;;4997256;28;19940;-50
2022/09/09 13:35:46;;;;;;;;;;;24.20;91.10;;;;;;5029030;28;19940;-50
2022/09/09 13:38:14;;;;;;;;;;;24.20;90.90;;;;;;5025438;28;19929;-51
2022/09/09 13:40:51;;;;;;;;;;;24.30;90.90;;;;;;5020418;28;19929;-53
2022/09/09 13:43:22;;;;;;;;;;;24.20;90.80;;;;;;5019430;28;19945;-52
2022/09/09 13:45:54;;;;;;;;;;;24.20;90.80;;;;;;5020427;28;19936;-54
2022/09/09 13:48:22;;;;;;;;;;;24.10;91.00;;;;;;5023429;28;19948;-50
2022/09/09 13:50:59;;;;;;;;;;;24.20;91.20;;;;;;5006874;28;19930;-50
2022/09/09 13:53:27;;;;;;;;;;;24.10;91.40;;;;;;5008864;28;19932;-52
2022/09/09 13:55:54;;;;;;;;;;;24.20;91.70;;;;;;5027926;28;19933;-51
2022/09/09 13:58:22;;;;;;;;;;;24.10;92.20;;;;;;5025968;28;19933;-48
2022/09/09 14:00:49;;;;;;;;;;;24.00;92.50;;;;;;5025132;28;19929;-49
2022/09/09 14:03:16;;;;;;;;;;;24.00;93.00;;;;;;5014701;28;19929;-49
2022/09/09 14:05:45;;;;;;;;;;;24.00;93.20;;;;;;5025954;28;19936;-49
2022/09/09 14:08:20;;;;;;;;;;;24.00;93.40;;;;;;5023773;28;19925;-54
2022/09/09 14:10:47;;;;;;;;;;;24.00;93.70;;;;;;5022098;28;20630;-51
2022/09/09 14:13:15;;;;;;;;;;;24.00;93.60;;;;;;5021121;28;20381;-51
2022/09/09 14:15:42;;;;;;;;;;;24.00;94.00;;;;;;5003464;28;19929;-53
2022/09/09 14:18:12;;;;;;;;;;;24.00;94.10;;;;;;5018402;28;19925;-52
2022/09/09 14:20:39;;;;;;;;;;;24.00;94.10;;;;;;5015740;28;19929;-50
2022/09/09 14:23:09;;;;;;;;;;;24.00;94.30;;;;;;5024619;28;19925;-51
2022/09/09 14:25:38;;;;;;;;;;;24.00;94.30;;;;;;5004947;28;19933;-49
2022/09/09 14:28:07;;;;;;;;;;;24.00;94.30;;;;;;5022317;28;19926;-53
2022/09/09 14:30:34;;;;;;;;;;;24.00;94.30;;;;;;5011979;28;20688;-56
2022/09/09 14:33:02;;;;;;;;;;;24.00;94.40;;;;;;5025072;28;19941;-54
2022/09/09 14:35:29;;;;;;;;;;;24.00;94.70;;;;;;5032257;28;19937;-49
2022/09/09 14:37:56;;;;;;;;;;;24.00;95.10;;;;;;5026237;28;19936;-53
2022/09/09 14:40:23;;;;;;;;;;;24.00;95.10;;;;;;5016688;28;19937;-49
2022/09/09 14:42:51;;;;;;;;;;;24.00;95.40;;;;;;5028491;28;20424;-53
2022/09/09 14:45:18;;;;;;;;;;;24.10;96.00;;;;;;5026622;28;20355;-53